Time;durP1;ratioP1;P1;durP2;ratioP2;P2;SDS_P1;SDS_P2;PMS_P1;PMS_P2;Temp;Humidity;BMP_temperature;BMP_pressure;BME280_temperature;BME280_humidity;BME280_pressure;Samples;Min_cycle;Max_cycle;Signal;HPM_P1;HPM_P2
2022/11/25 00:01:32;;;;;;;182.40;110.30;;;;;;;1.48;100.00;97763.38;104556;1329;22949;-86
2022/11/25 00:04:01;;;;;;;192.00;116.90;;;;;;;1.52;100.00;97767.56;104766;1330;22213;-87
2022/11/25 00:06:32;;;;;;;207.60;120.50;;;;;;;1.55;100.00;97771.08;104652;1330;22128;-88
2022/11/25 00:09:06;;;;;;;185.30;108.30;;;;;;;1.51;100.00;97774.70;104752;1330;22250;-87
2022/11/25 00:11:35;;;;;;;192.30;112.20;;;;;;;1.50;100.00;97778.40;104748;1323;22089;-87
2022/11/25 00:14:04;;;;;;;181.20;107.90;;;;;;;1.53;100.00;97777.59;104829;1330;22218;-87
2022/11/25 00:16:32;;;;;;;180.70;111.70;;;;;;;1.57;100.00;97777.73;105308;1319;22080;-88
2022/11/25 00:19:02;;;;;;;186.50;113.60;;;;;;;1.60;100.00;97778.98;104977;1328;22263;-87
2022/11/25 00:21:32;;;;;;;197.10;116.80;;;;;;;1.60;100.00;97775.63;104775;1317;22187;-90
2022/11/25 00:24:05;;;;;;;182.50;109.70;;;;;;;1.56;100.00;97770.69;104861;1330;22806;-86
2022/11/25 00:26:35;;;;;;;172.60;102.80;;;;;;;1.51;100.00;97770.20;104829;1330;22090;-87
2022/11/25 00:29:06;;;;;;;161.00;102.10;;;;;;;1.49;100.00;97767.97;104732;1324;22303;-89
2022/11/25 00:31:38;;;;;;;171.50;105.40;;;;;;;1.52;100.00;97768.77;104723;1330;22258;-87
2022/11/25 00:34:06;;;;;;;181.40;110.40;;;;;;;1.55;100.00;97774.60;104762;1329;22256;-88
2022/11/25 00:36:36;;;;;;;188.00;113.00;;;;;;;1.56;100.00;97778.08;104844;1330;22348;-88
2022/11/25 00:39:13;;;;;;;183.00;108.60;;;;;;;1.54;100.00;97777.20;104921;1308;22139;-88
2022/11/25 00:44:39;;;;;;;180.80;111.80;;;;;;;1.57;100.00;97781.70;104877;1330;22110;-89
2022/11/25 00:47:19;;;;;;;167.00;105.30;;;;;;;1.57;100.00;97784.19;104892;1330;22207;-88
2022/11/25 00:49:53;;;;;;;177.40;107.80;;;;;;;1.56;100.00;97794.96;104667;1330;22203;-86
2022/11/25 00:52:24;;;;;;;169.50;109.60;;;;;;;1.52;100.00;97796.16;104966;1330;22104;-88
2022/11/25 00:54:53;;;;;;;166.20;101.40;;;;;;;1.48;100.00;97800.41;104787;1329;22907;-88
2022/11/25 00:57:22;;;;;;;168.50;104.10;;;;;;;1.45;100.00;97800.63;105046;1320;22937;-88
2022/11/25 00:59:50;;;;;;;173.90;102.50;;;;;;;1.46;100.00;97803.29;105021;1320;22238;-89
2022/11/25 01:02:21;;;;;;;167.20;103.70;;;;;;;1.50;100.00;97802.95;104886;1327;22087;-88
2022/11/25 01:04:50;;;;;;;175.60;109.00;;;;;;;1.50;100.00;97803.96;104561;1330;22943;-88
2022/11/25 01:07:18;;;;;;;178.50;107.90;;;;;;;1.50;100.00;97804.20;104903;1320;22273;-88
2022/11/25 01:09:46;;;;;;;167.90;103.60;;;;;;;1.48;100.00;97801.48;104801;1329;22143;-88
2022/11/25 01:12:14;;;;;;;176.40;106.80;;;;;;;1.48;100.00;97801.48;104970;1320;22233;-89
2022/11/25 01:14:42;;;;;;;175.20;103.60;;;;;;;1.52;100.00;97801.85;104646;1329;22154;-88
2022/11/25 01:17:10;;;;;;;176.60;110.70;;;;;;;1.55;100.00;97808.13;104739;1330;22931;-88
2022/11/25 01:19:39;;;;;;;185.30;113.20;;;;;;;1.55;100.00;97809.44;104725;1329;22215;-88
2022/11/25 01:22:08;;;;;;;180.90;111.40;;;;;;;1.54;100.00;97807.79;104726;1329;22177;-89
2022/11/25 01:24:36;;;;;;;184.60;112.40;;;;;;;1.53;100.00;97809.36;104617;1330;22225;-89
2022/11/25 01:27:04;;;;;;;190.70;116.20;;;;;;;1.54;100.00;97803.54;104853;1329;22193;-87
2022/11/25 01:29:32;;;;;;;181.20;108.30;;;;;;;1.55;100.00;97800.94;104711;1330;22919;-87
2022/11/25 01:32:01;;;;;;;172.10;109.30;;;;;;;1.56;100.00;97800.70;104745;1330;22950;-88
2022/11/25 01:34:31;;;;;;;197.80;118.20;;;;;;;1.54;100.00;97797.04;104606;1329;22188;-89
2022/11/25 01:36:59;;;;;;;196.20;117.30;;;;;;;1.50;100.00;97795.72;104749;1330;22072;-88
2022/11/25 01:39:27;;;;;;;184.50;107.30;;;;;;;1.47;100.00;97791.63;104565;1330;22224;-87
2022/11/25 01:42:00;;;;;;;192.40;112.20;;;;;;;1.48;100.00;97793.83;104694;1330;22155;-86
2022/11/25 01:44:31;;;;;;;179.10;107.80;;;;;;;1.48;100.00;97791.61;104698;1330;22198;-88
2022/11/25 01:47:14;;;;;;;193.10;112.30;;;;;;;1.48;100.00;97794.99;104748;1330;22967;-88
2022/11/25 01:49:48;;;;;;;201.20;120.50;;;;;;;1.46;100.00;97791.24;104708;1330;22185;-87
2022/11/25 01:52:26;;;;;;;195.00;117.80;;;;;;;1.42;100.00;97794.20;104795;1322;22805;-88
2022/11/25 01:55:02;;;;;;;209.00;119.70;;;;;;;1.41;100.00;97791.64;104750;1330;22197;-86
2022/11/25 01:57:44;;;;;;;203.40;117.80;;;;;;;1.40;100.00;97791.64;104732;1318;22248;-87
2022/11/25 02:00:13;;;;;;;216.90;120.60;;;;;;;1.38;100.00;97787.68;104528;1324;22226;-87
2022/11/25 02:02:46;;;;;;;196.80;115.90;;;;;;;1.36;100.00;97785.84;104571;1328;22702;-87
2022/11/25 02:05:22;;;;;;;209.50;124.90;;;;;;;1.38;100.00;97786.45;104806;1330;22245;-87
2022/11/25 02:07:51;;;;;;;212.50;118.20;;;;;;;1.37;100.00;97787.87;104697;1330;22276;-87
2022/11/25 02:10:28;;;;;;;205.70;117.30;;;;;;;1.32;100.00;97788.13;105268;1320;22156;-86
2022/11/25 02:12:57;;;;;;;198.20;115.20;;;;;;;1.27;100.00;97789.36;104727;1330;22802;-89
2022/11/25 02:15:28;;;;;;;191.70;111.70;;;;;;;1.23;100.00;97789.67;104764;1330;22208;-89
2022/11/25 02:17:56;;;;;;;183.30;110.80;;;;;;;1.22;100.00;97790.35;104743;1330;22779;-89
2022/11/25 02:20:24;;;;;;;202.80;118.50;;;;;;;1.20;100.00;97790.89;104861;1330;22158;-91
2022/11/25 02:23:25;;;;;;;218.80;118.60;;;;;;;1.15;100.00;97789.69;104669;1329;22215;-90
2022/11/25 02:25:54;;;;;;;198.70;111.60;;;;;;;1.09;100.00;97789.27;104713;1330;23053;-90
2022/11/25 02:28:25;;;;;;;194.50;110.20;;;;;;;1.06;100.00;97792.11;104697;1330;22122;-90
2022/11/25 02:30:54;;;;;;;192.90;108.80;;;;;;;1.07;100.00;97793.17;104613;1330;22809;-90
2022/11/25 02:33:23;;;;;;;168.70;100.30;;;;;;;1.09;100.00;97791.71;104609;1325;22181;-90
2022/11/25 02:35:55;;;;;;;199.00;110.80;;;;;;;1.07;100.00;97794.66;104793;1330;22195;-90
2022/11/25 02:38:42;;;;;;;198.10;111.30;;;;;;;1.01;100.00;97793.33;104676;1330;22135;-90
2022/11/25 02:41:34;;;;;;;181.20;107.00;;;;;;;0.96;100.00;97797.54;104843;1329;22117;-85
2022/11/25 02:44:30;;;;;;;181.30;106.40;;;;;;;0.98;100.00;97798.11;104834;1330;22317;-90
2022/11/25 02:46:58;;;;;;;183.50;110.20;;;;;;;1.03;100.00;97798.25;104891;1330;22211;-90
2022/11/25 02:49:27;;;;;;;194.20;114.60;;;;;;;1.11;100.00;97797.38;104687;1330;22867;-91
2022/11/25 02:51:55;;;;;;;201.30;115.80;;;;;;;1.19;100.00;97799.10;104827;1325;22905;-89
2022/11/25 02:54:23;;;;;;;198.70;114.30;;;;;;;1.25;100.00;97802.89;104654;1329;22231;-88
2022/11/25 02:56:51;;;;;;;188.80;108.40;;;;;;;1.29;100.00;97804.73;104720;1325;22212;-88
2022/11/25 02:59:19;;;;;;;192.60;110.70;;;;;;;1.28;100.00;97804.30;104608;1330;22161;-90
2022/11/25 03:01:48;;;;;;;187.10;108.40;;;;;;;1.33;100.00;97807.56;104810;1329;22190;-88
2022/11/25 03:04:15;;;;;;;189.50;114.40;;;;;;;1.40;100.00;97809.31;104580;1330;22212;-90
2022/11/25 03:06:44;;;;;;;192.30;115.10;;;;;;;1.42;100.00;97811.94;104771;1329;22102;-89
2022/11/25 03:09:12;;;;;;;195.50;116.10;;;;;;;1.39;100.00;97813.55;104753;1329;22235;-88
2022/11/25 03:14:26;;;;;;;187.00;110.90;;;;;;;1.39;100.00;97815.35;104843;1329;23024;-88
2022/11/25 03:16:54;;;;;;;166.50;101.80;;;;;;;1.43;100.00;97816.42;104664;1329;22719;-89
2022/11/25 03:19:25;;;;;;;174.10;105.70;;;;;;;1.48;100.00;97813.63;104996;1320;22186;-88
2022/11/25 03:21:53;;;;;;;183.80;112.20;;;;;;;1.51;100.00;97814.96;104733;1322;22148;-88
2022/11/25 03:24:21;;;;;;;183.40;113.90;;;;;;;1.52;100.00;97817.52;104784;1330;22194;-91
2022/11/25 03:26:49;;;;;;;181.90;114.20;;;;;;;1.53;100.00;97817.00;104737;1325;22547;-92
2022/11/25 03:29:18;;;;;;;182.30;109.40;;;;;;;1.50;100.00;97820.23;104987;1318;22084;-90
2022/11/25 03:31:45;;;;;;;167.20;104.10;;;;;;;1.44;100.00;97819.14;104835;1330;22208;-91
2022/11/25 03:34:14;;;;;;;168.70;106.40;;;;;;;1.40;100.00;97821.25;104992;1308;22076;-87
2022/11/25 03:36:42;;;;;;;165.80;102.30;;;;;;;1.40;100.00;97821.04;104828;1327;22194;-89
2022/11/25 03:39:10;;;;;;;168.10;104.80;;;;;;;1.41;100.00;97821.80;104629;1330;22187;-86
2022/11/25 03:41:38;;;;;;;106.30;74.00;;;;;;;1.40;100.00;97828.05;104851;1327;22103;-90
2022/11/25 03:44:06;;;;;;;173.10;107.40;;;;;;;1.35;100.00;97828.36;104841;1322;22313;-90
2022/11/25 03:46:35;;;;;;;160.50;102.00;;;;;;;1.32;100.00;97833.35;104615;1330;22960;-88
2022/11/25 03:49:04;;;;;;;158.10;100.40;;;;;;;1.29;100.00;97832.76;104619;1330;22121;-91
2022/11/25 03:51:32;;;;;;;154.30;100.90;;;;;;;1.30;100.00;97837.20;104773;1325;22109;-91
2022/11/25 03:54:00;;;;;;;149.20;98.40;;;;;;;1.34;100.00;97838.57;105289;1320;22848;-88
2022/11/25 03:56:29;;;;;;;166.60;103.70;;;;;;;1.38;100.00;97836.36;104723;1330;22936;-91
2022/11/25 03:58:57;;;;;;;154.80;104.30;;;;;;;1.41;100.00;97838.30;104913;1329;22152;-90
2022/11/25 04:01:25;;;;;;;171.10;110.50;;;;;;;1.40;100.00;97841.22;104823;1329;22237;-88
2022/11/25 04:03:53;;;;;;;170.00;105.00;;;;;;;1.36;100.00;97839.62;104769;1329;22271;-89
2022/11/25 04:06:22;;;;;;;156.20;100.40;;;;;;;1.35;100.00;97837.33;104821;1329;22210;-89
2022/11/25 04:08:51;;;;;;;148.50;97.10;;;;;;;1.39;100.00;97836.32;104733;1324;22172;-89
2022/11/25 04:11:20;;;;;;;151.60;99.90;;;;;;;1.41;100.00;97838.52;104550;1327;22288;-90
2022/11/25 04:13:50;;;;;;;171.50;108.90;;;;;;;1.45;100.00;97839.35;104745;1330;22213;-88
2022/11/25 04:16:24;;;;;;;169.60;111.70;;;;;;;1.46;100.00;97839.73;104725;1315;22097;-88
2022/11/25 04:18:53;;;;;;;160.70;104.50;;;;;;;1.45;100.00;97841.88;104566;1330;22095;-89
2022/11/25 04:21:21;;;;;;;165.10;105.60;;;;;;;1.40;100.00;97843.77;104837;1327;22305;-90
2022/11/25 04:23:49;;;;;;;157.30;103.50;;;;;;;1.38;100.00;97846.92;104774;1330;22192;-90
2022/11/25 04:26:17;;;;;;;152.30;102.70;;;;;;;1.40;100.00;97847.02;104608;1330;22322;-88
2022/11/25 04:28:45;;;;;;;149.90;99.50;;;;;;;1.44;100.00;97845.50;104819;1330;22242;-86
2022/11/25 04:31:13;;;;;;;151.20;102.50;;;;;;;1.48;100.00;97844.43;104529;1330;22134;-89
2022/11/25 04:33:42;;;;;;;158.80;107.30;;;;;;;1.49;100.00;97846.27;104956;1318;22234;-88
2022/11/25 04:36:18;;;;;;;151.80;101.20;;;;;;;1.49;100.00;97847.00;104720;1330;22255;-89
2022/11/25 04:38:46;;;;;;;159.80;104.90;;;;;;;1.52;100.00;97845.61;104684;1330;21944;-89
2022/11/25 04:41:14;;;;;;;156.90;104.20;;;;;;;1.60;100.00;97847.86;104840;1330;22132;-90
2022/11/25 04:43:43;;;;;;;139.50;94.50;;;;;;;1.66;100.00;97851.25;104781;1329;22131;-86
2022/11/25 04:46:16;;;;;;;136.90;97.00;;;;;;;1.69;100.00;97852.36;104781;1330;22196;-88
2022/11/25 04:48:48;;;;;;;160.60;107.10;;;;;;;1.73;100.00;97854.27;104682;1330;22215;-90
2022/11/25 04:51:16;;;;;;;153.50;105.40;;;;;;;1.77;100.00;97857.90;104852;1318;22196;-89
2022/11/25 04:53:44;;;;;;;152.40;104.20;;;;;;;1.78;100.00;97856.27;104749;1328;22168;-88
2022/11/25 04:56:20;;;;;;;140.40;96.80;;;;;;;1.80;100.00;97858.86;105036;1315;22975;-85
2022/11/25 05:01:39;;;;;;;148.30;103.10;;;;;;;1.91;100.00;97861.94;104734;1330;22098;-86
2022/11/25 05:04:48;;;;;;;147.70;104.10;;;;;;;1.92;100.00;97866.04;104655;1330;22196;-86
2022/11/25 05:07:18;;;;;;;147.40;101.20;;;;;;;1.89;100.00;97863.60;105038;1320;22185;-91
2022/11/25 05:09:47;;;;;;;151.60;101.30;;;;;;;1.88;100.00;97865.91;104546;1330;22154;-90
2022/11/25 05:12:22;;;;;;;158.40;102.90;;;;;;;1.85;100.00;97870.13;104909;1320;22210;-91
2022/11/25 05:14:50;;;;;;;140.40;96.40;;;;;;;1.86;100.00;97869.68;104835;1330;22275;-88
2022/11/25 05:17:21;;;;;;;126.90;92.60;;;;;;;1.87;100.00;97872.03;104979;1320;22335;-90
2022/11/25 05:19:50;;;;;;;158.50;106.90;;;;;;;1.85;100.00;97878.42;104743;1329;22408;-90
2022/11/25 05:22:21;;;;;;;158.80;105.80;;;;;;;1.78;100.00;97883.11;104645;1330;22163;-89
2022/11/25 05:24:51;;;;;;;159.60;104.90;;;;;;;1.73;100.00;97880.37;104797;1330;22239;-90
2022/11/25 05:27:20;;;;;;;142.10;97.10;;;;;;;1.70;100.00;97886.22;104739;1330;22260;-89
2022/11/25 05:29:49;;;;;;;163.30;104.00;;;;;;;1.71;100.00;97885.70;104780;1330;22330;-90
2022/11/25 05:32:23;;;;;;;152.30;105.00;;;;;;;1.73;100.00;97889.77;104628;1330;22097;-88
2022/11/25 05:34:52;;;;;;;155.30;104.20;;;;;;;1.77;100.00;97887.44;104750;1330;22807;-89
2022/11/25 05:37:20;;;;;;;155.00;104.20;;;;;;;1.78;100.00;97895.12;104842;1323;22273;-87
2022/11/25 05:39:55;;;;;;;169.30;111.40;;;;;;;1.82;100.00;97898.10;104771;1324;22216;-87
2022/11/25 05:42:49;;;;;;;161.30;108.70;;;;;;;1.87;100.00;97903.06;104574;1330;22101;-89
2022/11/25 05:45:17;;;;;;;167.20;106.50;;;;;;;1.94;100.00;97906.48;105037;1307;22978;-88
2022/11/25 05:47:46;;;;;;;183.60;111.40;;;;;;;2.01;100.00;97908.96;104754;1330;22275;-88
2022/11/25 05:50:17;;;;;;;188.60;117.20;;;;;;;2.07;100.00;97909.21;104764;1329;22251;-89
2022/11/25 05:53:02;;;;;;;205.20;122.60;;;;;;;2.07;100.00;97909.95;104927;1320;22253;-89
2022/11/25 05:55:32;;;;;;;206.30;126.90;;;;;;;2.03;100.00;97913.14;105174;1308;22274;-87
2022/11/25 05:58:01;;;;;;;201.10;115.50;;;;;;;1.98;100.00;97911.73;104956;1314;22090;-84
2022/11/25 06:00:31;;;;;;;178.40;111.70;;;;;;;1.93;100.00;97917.45;105001;1330;22209;-86
2022/11/25 06:03:01;;;;;;;178.70;111.10;;;;;;;1.89;100.00;97917.33;104885;1330;22817;-87
2022/11/25 06:05:29;;;;;;;176.00;112.70;;;;;;;1.90;100.00;97919.90;105229;1305;22195;-90
2022/11/25 06:07:58;;;;;;;177.50;113.70;;;;;;;1.91;100.00;97918.85;105202;1302;21952;-90
2022/11/25 06:10:26;;;;;;;203.20;118.30;;;;;;;1.94;100.00;97921.29;104895;1329;22234;-85
2022/11/25 06:12:54;;;;;;;248.60;130.00;;;;;;;1.88;100.00;97919.06;105093;1320;22101;-92
2022/11/25 06:15:24;;;;;;;182.40;115.40;;;;;;;1.83;100.00;97916.86;105114;1322;22160;-91
2022/11/25 06:17:54;;;;;;;176.70;111.40;;;;;;;1.80;100.00;97921.93;105077;1323;22081;-86
2022/11/25 06:20:25;;;;;;;163.30;107.00;;;;;;;1.81;100.00;97922.36;105223;1311;22095;-88
2022/11/25 06:22:54;;;;;;;174.00;108.40;;;;;;;1.89;100.00;97927.91;105109;1313;22106;-86
2022/11/25 06:25:26;;;;;;;172.80;110.60;;;;;;;1.97;100.00;97925.38;104818;1330;22456;-84
2022/11/25 06:27:56;;;;;;;189.10;119.30;;;;;;;1.98;100.00;97926.93;104757;1330;22124;-84
2022/11/25 06:30:41;;;;;;;202.00;128.20;;;;;;;1.94;100.00;97926.60;105034;1320;22084;-85
2022/11/25 06:33:16;;;;;;;200.10;125.40;;;;;;;1.91;100.00;97935.33;104775;1321;22443;-86
2022/11/25 06:35:45;;;;;;;199.50;124.30;;;;;;;1.93;100.00;97932.60;104640;1330;22236;-85
2022/11/25 06:38:13;;;;;;;195.50;123.00;;;;;;;1.97;100.00;97936.13;104786;1330;22157;-90
2022/11/25 06:40:41;;;;;;;193.10;124.30;;;;;;;2.04;100.00;97937.23;104812;1330;22210;-89
2022/11/25 06:43:09;;;;;;;189.60;120.80;;;;;;;2.08;100.00;97935.65;104973;1314;22848;-85
2022/11/25 06:45:37;;;;;;;191.90;122.50;;;;;;;2.02;100.00;97934.34;105222;1320;22273;-85
2022/11/25 06:48:05;;;;;;;174.10;109.90;;;;;;;2.00;100.00;97934.20;104797;1330;22211;-85
2022/11/25 06:50:33;;;;;;;154.60;100.30;;;;;;;2.00;100.00;97931.64;104744;1330;22832;-86
2022/11/25 06:53:01;;;;;;;169.60;108.20;;;;;;;1.92;100.00;97936.41;104713;1321;22215;-85
2022/11/25 06:55:29;;;;;;;169.70;106.60;;;;;;;1.89;100.00;97935.39;104935;1310;22848;-85
2022/11/25 06:57:57;;;;;;;176.70;113.80;;;;;;;1.85;100.00;97937.94;105258;1326;22183;-82
2022/11/25 07:00:45;;;;;;;177.00;112.10;;;;;;;1.80;100.00;97941.43;105135;1319;22438;-86
2022/11/25 07:03:13;;;;;;;193.60;118.40;;;;;;;1.75;100.00;97942.50;105267;1320;22172;-85
2022/11/25 07:05:41;;;;;;;194.10;116.60;;;;;;;1.67;100.00;97947.01;105208;1312;22183;-87
2022/11/25 07:08:09;;;;;;;209.30;123.80;;;;;;;1.62;100.00;97945.63;105244;1320;22211;-86
2022/11/25 07:10:37;;;;;;;189.00;114.40;;;;;;;1.63;100.00;97951.39;104899;1333;22918;-86
2022/11/25 07:13:05;;;;;;;173.40;106.80;;;;;;;1.71;100.00;97953.80;104755;1330;22225;-87
2022/11/25 07:15:34;;;;;;;205.00;122.50;;;;;;;1.79;100.00;97953.52;104724;1330;22727;-85
2022/11/25 07:18:02;;;;;;;221.00;127.60;;;;;;;1.87;100.00;97956.24;104742;1328;22241;-86
2022/11/25 07:20:31;;;;;;;224.20;129.20;;;;;;;1.95;100.00;97955.84;105130;1320;208375;-85
2022/11/25 07:22:59;;;;;;;194.00;120.10;;;;;;;2.01;100.00;97959.99;105240;1311;22836;-87
2022/11/25 07:25:27;;;;;;;189.50;116.80;;;;;;;2.06;100.00;97959.54;104868;1333;22257;-88
2022/11/25 07:27:58;;;;;;;183.10;113.80;;;;;;;2.10;100.00;97961.08;104906;1332;22244;-86
2022/11/25 07:30:26;;;;;;;191.40;116.90;;;;;;;2.14;100.00;97964.45;104763;1330;22232;-85
2022/11/25 07:33:14;;;;;;;209.80;121.40;;;;;;;2.16;100.00;97960.75;105019;1326;22375;-87
2022/11/25 07:35:42;;;;;;;200.30;121.90;;;;;;;2.21;100.00;97965.02;105231;1322;22224;-87
2022/11/25 07:38:10;;;;;;;208.30;124.40;;;;;;;2.23;100.00;97965.48;104878;1329;22797;-88
2022/11/25 07:40:38;;;;;;;203.40;121.50;;;;;;;2.27;100.00;97971.50;104960;1314;22745;-86
2022/11/25 07:43:06;;;;;;;194.00;119.40;;;;;;;2.30;100.00;97972.77;104690;1333;22240;-87
2022/11/25 07:45:34;;;;;;;193.20;116.90;;;;;;;2.35;100.00;97974.86;104865;1329;22288;-88
2022/11/25 07:48:07;;;;;;;203.20;126.30;;;;;;;2.40;100.00;97977.27;104658;1332;22127;-88
2022/11/25 07:50:35;;;;;;;205.60;123.70;;;;;;;2.43;100.00;97980.23;104814;1333;22811;-86
2022/11/25 07:53:03;;;;;;;219.80;122.30;;;;;;;2.43;100.00;97981.04;105013;1327;22131;-84
2022/11/25 07:55:31;;;;;;;196.30;115.80;;;;;;;2.41;100.00;97975.92;105018;1328;22208;-85
2022/11/25 07:57:59;;;;;;;185.90;107.00;;;;;;;2.41;100.00;97982.02;105357;1314;22238;-87
2022/11/25 08:00:27;;;;;;;180.60;106.70;;;;;;;2.42;100.00;97983.52;105345;1318;21822;-88
2022/11/25 08:02:55;;;;;;;199.70;119.50;;;;;;;2.39;100.00;97988.27;105001;1328;22782;-86
2022/11/25 08:05:23;;;;;;;217.30;124.30;;;;;;;2.41;100.00;97991.91;104915;1327;22177;-87
2022/11/25 08:07:51;;;;;;;206.40;127.00;;;;;;;2.42;100.00;97993.54;104730;1331;23433;-88
2022/11/25 08:10:19;;;;;;;218.20;134.40;;;;;;;2.42;100.00;97992.56;104929;1331;22175;-88
2022/11/25 08:12:47;;;;;;;198.50;116.40;;;;;;;2.44;100.00;97992.59;104895;1331;22126;-87
2022/11/25 08:15:15;;;;;;;194.20;117.30;;;;;;;2.45;100.00;97992.23;104890;1333;22281;-88
2022/11/25 08:17:43;;;;;;;219.00;120.40;;;;;;;2.48;100.00;97995.46;104993;1321;22175;-86
2022/11/25 08:20:12;;;;;;;197.40;124.20;;;;;;;2.50;100.00;97994.83;104849;1333;22290;-86
2022/11/25 08:22:40;;;;;;;218.60;130.30;;;;;;;2.49;100.00;97996.02;104962;1308;22769;-86
2022/11/25 08:25:08;;;;;;;220.30;127.80;;;;;;;2.51;100.00;97998.92;104842;1328;22285;-87
2022/11/25 08:27:36;;;;;;;199.60;117.30;;;;;;;2.54;100.00;98003.66;104622;1333;22180;-85
2022/11/25 08:30:05;;;;;;;200.10;118.30;;;;;;;2.61;100.00;98002.42;104801;1327;22210;-88
2022/11/25 08:32:39;;;;;;;179.40;108.30;;;;;;;2.64;100.00;98002.73;105081;1325;22169;-89
2022/11/25 08:35:07;;;;;;;218.50;133.70;;;;;;;2.65;100.00;98000.83;104784;1328;22093;-86
2022/11/25 08:37:35;;;;;;;205.50;126.40;;;;;;;2.63;100.00;98003.27;105004;1313;22282;-88
2022/11/25 08:40:04;;;;;;;209.30;124.80;;;;;;;2.60;100.00;98001.23;105258;1321;22076;-87
2022/11/25 08:42:32;;;;;;;197.40;116.00;;;;;;;2.56;100.00;98002.19;104769;1329;22250;-88
2022/11/25 08:45:00;;;;;;;181.50;112.50;;;;;;;2.55;100.00;98004.83;104969;1308;22858;-85
2022/11/25 08:47:28;;;;;;;166.30;111.20;;;;;;;2.59;100.00;98006.54;104632;1330;22827;-88
2022/11/25 08:49:57;;;;;;;190.60;118.00;;;;;;;2.67;100.00;98009.22;104940;1311;22203;-85
2022/11/25 08:52:25;;;;;;;190.30;120.40;;;;;;;2.73;100.00;98009.67;105215;1318;22132;-87
2022/11/25 08:54:53;;;;;;;195.30;119.70;;;;;;;2.79;100.00;98011.83;104831;1330;22994;-87
2022/11/25 08:57:21;;;;;;;184.40;109.80;;;;;;;2.82;100.00;98015.16;104906;1320;22182;-86
2022/11/25 08:59:49;;;;;;;185.10;110.50;;;;;;;2.86;100.00;98013.20;105217;1320;22977;-88
2022/11/25 09:02:17;;;;;;;187.20;111.70;;;;;;;2.93;100.00;98015.85;104764;1329;22230;-86
2022/11/25 09:04:45;;;;;;;188.60;116.30;;;;;;;3.03;100.00;98015.59;104905;1326;22189;-87
2022/11/25 09:07:13;;;;;;;191.80;117.30;;;;;;;3.10;100.00;98020.52;105219;1320;22187;-88
2022/11/25 09:09:42;;;;;;;197.60;120.80;;;;;;;3.15;100.00;98022.98;105254;1320;22179;-87
2022/11/25 09:12:10;;;;;;;200.40;120.70;;;;;;;3.20;100.00;98027.52;105206;1320;22198;-86
2022/11/25 09:14:39;;;;;;;197.80;120.10;;;;;;;3.23;100.00;98024.74;104952;1321;23479;-87
2022/11/25 09:17:11;;;;;;;180.60;111.60;;;;;;;3.26;100.00;98027.65;104723;1330;22097;-86
2022/11/25 09:19:40;;;;;;;179.50;108.10;;;;;;;3.27;100.00;98032.47;104627;1329;22827;-87
2022/11/25 09:22:08;;;;;;;179.70;115.00;;;;;;;3.34;100.00;98033.50;104849;1330;22091;-87
2022/11/25 09:24:35;;;;;;;189.40;118.20;;;;;;;3.40;100.00;98034.91;104732;1330;22216;-88
2022/11/25 09:27:04;;;;;;;209.80;125.50;;;;;;;3.44;100.00;98035.73;104657;1330;22131;-87
2022/11/25 09:29:32;;;;;;;200.00;118.70;;;;;;;3.43;100.00;98034.19;104825;1330;22219;-88
2022/11/25 09:32:00;;;;;;;187.10;119.00;;;;;;;3.42;100.00;98031.89;105246;1320;22698;-87
2022/11/25 09:34:28;;;;;;;183.80;113.50;;;;;;;3.48;100.00;98033.02;104523;1330;22285;-88
2022/11/25 09:36:56;;;;;;;197.80;121.30;;;;;;;3.53;100.00;98031.39;104718;1330;22210;-87
2022/11/25 09:39:28;;;;;;;191.80;121.20;;;;;;;3.59;100.00;98030.59;104745;1330;22241;-87
2022/11/25 09:48:10;;;;;;;194.00;115.00;;;;;;;3.66;100.00;98031.67;104822;1323;22258;-84
2022/11/25 09:51:02;;;;;;;188.60;120.80;;;;;;;3.70;100.00;98031.39;104842;1330;22120;-85
2022/11/25 09:53:49;;;;;;;194.60;120.10;;;;;;;3.78;100.00;98027.23;105341;1320;22241;-87
2022/11/25 09:56:32;;;;;;;205.00;130.00;;;;;;;3.85;100.00;98030.38;105085;1320;22179;-87
2022/11/25 09:59:40;;;;;;;225.10;137.10;;;;;;;3.87;100.00;98028.33;105351;1310;22191;-86
2022/11/25 10:02:27;;;;;;;206.10;123.60;;;;;;;3.90;100.00;98031.60;105078;1304;22265;-87
2022/11/25 10:05:12;;;;;;;188.90;120.00;;;;;;;3.96;100.00;98030.33;105208;1305;22219;-86
2022/11/25 10:07:45;;;;;;;193.30;121.10;;;;;;;4.04;100.00;98027.30;104988;1320;22100;-86
2022/11/25 10:10:30;;;;;;;195.50;121.20;;;;;;;4.09;100.00;98026.13;104858;1330;21987;-86
2022/11/25 10:12:58;;;;;;;195.80;121.30;;;;;;;4.14;100.00;98025.41;104762;1330;22133;-87
2022/11/25 10:15:33;;;;;;;187.80;119.90;;;;;;;4.16;100.00;98022.06;104921;1320;22065;-87
2022/11/25 10:18:30;;;;;;;186.80;113.90;;;;;;;4.12;100.00;98024.98;104981;1314;22118;-87
2022/11/25 10:20:58;;;;;;;174.60;110.10;;;;;;;4.10;100.00;98024.38;104832;1330;22762;-87
2022/11/25 10:23:32;;;;;;;168.90;106.00;;;;;;;4.11;100.00;98025.28;104849;1322;22180;-86
2022/11/25 10:26:09;;;;;;;168.80;109.80;;;;;;;4.12;100.00;98027.15;105217;1320;22937;-88
2022/11/25 10:28:39;;;;;;;149.40;98.90;;;;;;;4.08;100.00;98029.32;104882;1320;22246;-87
2022/11/25 10:31:19;;;;;;;168.30;108.20;;;;;;;4.03;100.00;98029.70;104744;1330;22370;-88
2022/11/25 10:33:51;;;;;;;137.40;92.20;;;;;;;4.00;100.00;98032.11;104596;1330;22143;-87
2022/11/25 10:36:22;;;;;;;144.80;95.10;;;;;;;3.98;100.00;98029.71;104969;1320;22096;-87
2022/11/25 10:39:10;;;;;;;138.30;93.60;;;;;;;4.08;100.00;98029.42;104842;1329;22332;-85
2022/11/25 10:42:06;;;;;;;137.70;91.20;;;;;;;4.18;100.00;98029.08;105283;1320;22084;-88
2022/11/25 10:44:38;;;;;;;99.90;79.30;;;;;;;4.23;100.00;98029.55;104735;1329;22114;-87
2022/11/25 10:47:35;;;;;;;135.20;87.40;;;;;;;4.26;100.00;98024.23;104736;1328;22197;-87
2022/11/25 10:50:41;;;;;;;145.50;95.20;;;;;;;4.28;100.00;98028.73;104746;1315;22195;-87
2022/11/25 10:53:21;;;;;;;162.60;102.80;;;;;;;4.30;100.00;98030.83;104811;1329;22171;-88
2022/11/25 10:56:00;;;;;;;137.30;90.40;;;;;;;4.27;100.00;98035.24;104718;1330;22799;-88
2022/11/25 10:58:37;;;;;;;136.70;90.70;;;;;;;4.26;100.00;98039.55;104654;1330;22855;-87
2022/11/25 11:01:22;;;;;;;151.00;99.70;;;;;;;4.25;100.00;98035.16;104958;1320;22087;-88
2022/11/25 11:03:53;;;;;;;117.90;85.60;;;;;;;4.34;100.00;98038.23;104909;1308;22119;-89
2022/11/25 11:06:34;;;;;;;161.70;95.80;;;;;;;4.40;100.00;98037.48;105250;1320;22175;-86
2022/11/25 11:09:03;;;;;;;138.90;93.00;;;;;;;4.43;100.00;98037.45;105001;1320;22913;-86
2022/11/25 11:11:31;;;;;;;144.50;97.40;;;;;;;4.45;100.00;98032.71;105273;1320;22358;-85
2022/11/25 11:14:13;;;;;;;126.20;88.70;;;;;;;4.44;100.00;98030.63;105266;1314;22114;-87
2022/11/25 11:16:44;;;;;;;111.20;83.70;;;;;;;4.48;100.00;98033.11;104968;1308;22181;-87
2022/11/25 11:19:24;;;;;;;107.50;83.60;;;;;;;4.52;100.00;98033.56;105243;1308;22186;-89
2022/11/25 11:21:53;;;;;;;110.10;88.50;;;;;;;4.60;100.00;98032.88;105227;1312;22188;-86
2022/11/25 11:24:31;;;;;;;109.00;86.30;;;;;;;4.68;100.00;98030.64;105217;1314;22331;-87
2022/11/25 11:27:22;;;;;;;109.20;84.60;;;;;;;4.76;100.00;98027.70;105167;1315;22068;-86
2022/11/25 11:30:15;;;;;;;116.30;82.00;;;;;;;4.75;100.00;98029.34;105008;1320;23079;-87